createdAt,value
2019-01-12T00:02:44.154Z,29.80
2019-01-12T00:07:43.698Z,31.23
2019-01-12T00:12:43.417Z,35.67
2019-01-12T00:17:42.948Z,33.57
2019-01-12T00:22:42.491Z,28.60
2019-01-12T00:27:42.053Z,39.73
2019-01-12T00:32:41.590Z,34.33
2019-01-12T00:37:41.121Z,34.23
2019-01-12T00:42:40.749Z,24.90
2019-01-12T00:47:40.289Z,31.60
2019-01-12T00:52:39.822Z,34.57
2019-01-12T00:57:39.466Z,32.13
2019-01-12T01:02:39.157Z,38.83
2019-01-12T01:07:38.797Z,38.70
2019-01-12T01:12:38.345Z,29.53
2019-01-12T01:17:37.886Z,29.43
2019-01-12T01:22:37.624Z,39.73
2019-01-12T01:27:37.229Z,31.80
2019-01-12T01:32:36.766Z,24.07
2019-01-12T01:37:36.313Z,35.03
2019-01-12T01:42:35.861Z,32.17
2019-01-12T01:47:35.411Z,30.20
2019-01-12T01:52:35.135Z,33.87
2019-01-12T01:57:34.846Z,29.57
2019-01-12T02:02:34.382Z,21.37
2019-01-12T02:07:33.950Z,43.10
2019-01-12T02:12:33.485Z,49.80
2019-01-12T02:17:33.018Z,27.20
2019-01-12T02:22:32.575Z,29.97
2019-01-12T02:27:32.107Z,39.00
2019-01-12T02:32:31.647Z,44.70
2019-01-12T02:37:31.231Z,28.13
2019-01-12T02:42:30.770Z,32.10
2019-01-12T02:47:30.306Z,26.30
2019-01-12T02:52:30.096Z,37.03
2019-01-12T02:57:29.643Z,39.10
2019-01-12T03:02:29.227Z,28.50
2019-01-12T03:07:28.842Z,23.80
2019-01-12T03:12:28.392Z,24.60
2019-01-12T03:17:40.154Z,21.60
2019-01-12T03:22:39.725Z,26.17
2019-01-12T03:27:40.338Z,50.10
2019-01-12T03:32:39.902Z,38.47
2019-01-12T03:37:39.431Z,39.67
2019-01-12T03:42:38.971Z,33.40
2019-01-12T03:47:38.597Z,36.43
2019-01-12T03:52:38.155Z,29.10
2019-01-12T03:57:37.692Z,35.13
2019-01-12T04:02:37.239Z,27.10
2019-01-12T04:07:36.783Z,41.53
2019-01-12T04:12:36.321Z,19.53
2019-01-12T04:17:35.872Z,26.93
2019-01-12T04:22:35.410Z,43.07
2019-01-12T04:27:34.972Z,26.43
2019-01-12T04:32:34.702Z,38.23
2019-01-12T04:37:34.343Z,28.13
2019-01-12T04:42:34.966Z,33.03
2019-01-12T04:47:34.513Z,28.57
2019-01-12T04:52:34.125Z,33.30
2019-01-12T04:57:33.709Z,28.40
2019-01-12T05:02:33.252Z,36.50
2019-01-12T05:07:32.825Z,25.47
2019-01-12T05:12:32.367Z,43.13
2019-01-12T05:17:31.903Z,43.10
2019-01-12T05:22:31.458Z,47.73
2019-01-12T05:27:31.037Z,36.20
2019-01-12T05:32:30.582Z,20.33
2019-01-12T05:37:30.117Z,25.03
2019-01-12T05:42:29.685Z,25.13
2019-01-12T05:47:29.241Z,24.50
2019-01-12T05:52:28.780Z,24.33
2019-01-12T05:57:28.330Z,20.17
2019-01-12T06:02:27.881Z,23.23
2019-01-12T06:07:27.431Z,22.50
2019-01-12T06:12:26.966Z,27.97
2019-01-12T06:17:26.534Z,22.63
2019-01-12T06:22:26.074Z,28.03
2019-01-12T06:27:25.615Z,25.03
2019-01-12T06:32:25.155Z,27.20
2019-01-12T06:37:24.771Z,26.03
2019-01-12T06:42:24.401Z,24.87
2019-01-12T06:47:23.959Z,26.13
2019-01-12T06:52:23.503Z,22.70
2019-01-12T06:57:23.067Z,26.63
2019-01-12T07:02:22.610Z,22.87
2019-01-12T07:07:22.157Z,13.43
2019-01-12T07:12:21.707Z,33.87
2019-01-12T07:17:21.254Z,25.27
2019-01-12T07:22:20.806Z,29.27
2019-01-12T07:27:20.356Z,31.00
2019-01-12T07:32:19.938Z,31.90
2019-01-12T07:37:19.482Z,29.90
2019-01-12T07:42:19.025Z,21.50
2019-01-12T07:47:18.583Z,23.23
2019-01-12T07:52:18.122Z,20.13
2019-01-12T07:57:17.654Z,23.73
2019-01-12T08:02:17.199Z,41.70
2019-01-12T08:07:16.754Z,22.70
2019-01-12T08:12:16.343Z,19.53
2019-01-12T08:17:15.895Z,28.67
2019-01-12T08:22:15.430Z,19.73
2019-01-12T08:27:16.132Z,38.93
2019-01-12T08:32:15.803Z,20.40
2019-01-12T08:37:15.354Z,13.73
2019-01-12T08:42:14.897Z,20.10
2019-01-12T08:47:14.438Z,23.40
2019-01-12T08:52:14.034Z,37.30
2019-01-12T08:57:13.570Z,29.80
2019-01-12T09:02:13.133Z,20.63
2019-01-12T09:07:12.676Z,14.33
2019-01-12T09:12:12.231Z,15.53
2019-01-12T09:17:11.811Z,26.80
2019-01-12T09:22:11.351Z,14.10
2019-01-12T09:27:10.963Z,18.47
2019-01-12T09:32:10.529Z,12.17
2019-01-12T09:37:10.560Z,25.33
2019-01-12T09:42:10.151Z,7.60
2019-01-12T09:47:09.705Z,6.67
2019-01-12T09:52:09.325Z,3.90
2019-01-12T09:57:09.148Z,2.93
2019-01-12T10:02:08.870Z,4.23
2019-01-12T10:07:08.419Z,5.33
2019-01-12T10:12:07.959Z,1.60
2019-01-12T10:17:07.502Z,4.00
2019-01-12T10:22:07.046Z,7.23
2019-01-12T10:27:06.617Z,2.20
2019-01-12T10:32:06.149Z,1.63
2019-01-12T10:37:06.155Z,1.97
2019-01-12T10:42:05.789Z,2.20
2019-01-12T10:47:05.416Z,1.03
2019-01-12T10:52:05.310Z,6.83
2019-01-12T10:57:05.552Z,0.80
2019-01-12T11:02:06.829Z,6.43
2019-01-12T11:07:07.374Z,1.73
2019-01-12T11:12:08.083Z,1.33
2019-01-12T11:17:08.667Z,4.40
2019-01-12T11:22:09.205Z,1.20
2019-01-12T11:27:12.330Z,5.53
2019-01-12T11:32:10.155Z,3.87
2019-01-12T11:37:10.571Z,3.37
2019-01-12T11:42:10.274Z,1.20
2019-01-12T11:47:11.059Z,1.93
2019-01-12T11:52:10.589Z,3.40
2019-01-12T11:57:18.951Z,4.50
2019-01-12T12:02:14.455Z,3.97
2019-01-12T12:07:20.034Z,2.20
2019-01-12T12:12:19.926Z,1.60
2019-01-12T12:17:22.869Z,2.07
2019-01-12T12:22:22.455Z,2.00
2019-01-12T12:27:25.971Z,3.00
2019-01-12T12:32:23.235Z,15.90
2019-01-12T12:37:22.791Z,3.53
2019-01-12T12:42:22.342Z,3.30
2019-01-12T12:47:21.901Z,1.60
2019-01-12T12:52:21.443Z,2.20
2019-01-12T12:57:21.007Z,8.10
2019-01-12T13:02:20.560Z,3.33
2019-01-12T13:07:20.090Z,3.43
2019-01-12T13:12:19.750Z,1.23
2019-01-12T13:17:19.289Z,2.80
2019-01-12T13:22:18.818Z,1.70
2019-01-12T13:27:18.353Z,4.57
2019-01-12T13:32:17.887Z,3.27
2019-01-12T13:37:17.490Z,5.47
2019-01-12T13:42:17.030Z,2.20
2019-01-12T13:47:20.839Z,2.93
2019-01-12T13:52:17.799Z,2.83
2019-01-12T13:57:17.335Z,1.27
2019-01-12T14:02:17.139Z,3.70
2019-01-12T14:07:16.674Z,3.40
2019-01-12T14:12:16.215Z,6.70
2019-01-12T14:17:15.741Z,2.87
2019-01-12T14:22:15.277Z,6.50
2019-01-12T14:27:14.811Z,3.53
2019-01-12T14:32:14.343Z,2.40
2019-01-12T14:37:13.873Z,4.27
2019-01-12T14:42:13.417Z,5.13
2019-01-12T14:47:12.959Z,3.13
2019-01-12T14:52:12.497Z,3.53
2019-01-12T14:57:12.054Z,3.40
2019-01-12T15:02:11.605Z,4.50
2019-01-12T15:07:11.216Z,4.60
2019-01-12T15:12:10.743Z,5.20
2019-01-12T15:17:13.529Z,4.97
2019-01-12T15:22:15.727Z,4.20
2019-01-12T15:27:17.936Z,3.07
2019-01-12T15:32:20.024Z,3.37
2019-01-12T15:37:23.999Z,3.43
2019-01-12T15:42:26.991Z,2.70
2019-01-12T15:47:28.955Z,13.37
2019-01-12T15:52:28.537Z,3.10
2019-01-12T15:57:28.081Z,6.00
2019-01-12T16:02:27.599Z,7.53
2019-01-12T16:07:27.147Z,6.50
2019-01-12T16:12:26.681Z,4.80
2019-01-12T16:17:26.294Z,3.97
2019-01-12T16:22:25.846Z,3.70
2019-01-12T16:27:25.374Z,5.00
2019-01-12T16:32:25.102Z,3.53
2019-01-12T16:37:24.836Z,4.57
2019-01-12T16:42:24.640Z,6.80
2019-01-12T16:47:24.374Z,4.40
2019-01-12T16:52:23.910Z,6.53
2019-01-12T16:57:23.447Z,6.43
2019-01-12T17:02:23.610Z,4.20
2019-01-12T17:07:23.238Z,5.03
2019-01-12T17:12:22.807Z,5.23
2019-01-12T17:17:22.414Z,5.50
2019-01-12T17:22:22.475Z,5.63
2019-01-12T17:27:22.246Z,4.53
2019-01-12T17:32:22.234Z,4.00
2019-01-12T17:37:21.787Z,5.17
2019-01-12T17:42:21.484Z,7.83
2019-01-12T17:47:21.042Z,8.13
2019-01-12T17:52:20.770Z,7.93
2019-01-12T17:57:20.309Z,7.80
2019-01-12T18:02:19.931Z,6.50
2019-01-12T18:07:19.487Z,8.30
2019-01-12T18:12:20.126Z,7.33
2019-01-12T18:17:19.774Z,7.70
2019-01-12T18:22:19.307Z,11.50
2019-01-12T18:27:20.262Z,8.23
2019-01-12T18:32:19.902Z,8.03
2019-01-12T18:37:19.445Z,6.60
2019-01-12T18:42:18.998Z,8.00
2019-01-12T18:47:18.548Z,11.40
2019-01-12T18:52:18.076Z,9.87
2019-01-12T18:57:17.603Z,8.17
2019-01-12T19:02:17.182Z,8.20
2019-01-12T19:07:16.725Z,12.70
2019-01-12T19:12:16.275Z,7.27
2019-01-12T19:17:15.798Z,7.20
2019-01-12T19:22:15.482Z,8.30
2019-01-12T19:27:15.017Z,6.13
2019-01-12T19:32:14.567Z,7.70
2019-01-12T19:37:14.106Z,5.73
2019-01-12T19:42:13.666Z,15.13
2019-01-12T19:47:13.214Z,19.07
2019-01-12T19:52:12.822Z,7.00
2019-01-12T19:57:12.369Z,4.90
2019-01-12T20:02:11.917Z,5.33
2019-01-12T20:07:11.469Z,5.03
2019-01-12T20:12:11.042Z,6.80
2019-01-12T20:17:10.660Z,3.23
2019-01-12T20:22:11.406Z,7.00
2019-01-12T20:27:11.123Z,8.60
2019-01-12T20:32:19.714Z,5.07
2019-01-12T20:37:53.246Z,8.73
2019-01-12T20:43:18.354Z,6.63
2019-01-12T20:48:51.566Z,6.97
2019-01-12T20:54:27.145Z,3.60
2019-01-12T20:59:39.938Z,3.37
2019-01-12T21:05:10.524Z,4.07
2019-01-12T21:10:32.454Z,3.00
2019-01-12T21:15:40.370Z,7.00
2019-01-12T21:20:40.039Z,5.60
2019-01-12T21:25:39.587Z,8.10
2019-01-12T21:30:39.459Z,4.00
2019-01-12T21:35:38.995Z,4.23
2019-01-12T21:40:38.727Z,7.13
2019-01-12T21:45:38.717Z,4.03
2019-01-12T21:50:39.570Z,6.73
2019-01-12T21:55:39.291Z,5.97
2019-01-12T22:00:39.002Z,4.53
2019-01-12T22:05:38.674Z,8.43
2019-01-12T22:10:38.479Z,4.00
2019-01-12T22:15:38.200Z,6.50
2019-01-12T22:20:37.927Z,4.87
2019-01-12T22:25:37.457Z,8.67
2019-01-12T22:30:37.264Z,4.20
2019-01-12T22:35:36.866Z,5.00
2019-01-12T22:40:36.417Z,5.37
2019-01-12T22:45:35.974Z,5.40
2019-01-12T22:50:35.519Z,1.80
2019-01-12T22:55:35.044Z,7.63
2019-01-12T23:00:58.229Z,4.90
2019-01-12T23:05:58.633Z,8.13
2019-01-12T23:10:58.169Z,6.43
2019-01-12T23:15:57.700Z,5.80
2019-01-12T23:20:57.238Z,13.70
2019-01-12T23:25:56.843Z,6.83
2019-01-12T23:30:56.362Z,2.53
2019-01-12T23:35:56.061Z,1.13
2019-01-12T23:40:55.589Z,3.03
2019-01-12T23:45:55.129Z,2.10
2019-01-12T23:50:54.661Z,8.00
2019-01-12T23:55:54.203Z,5.37
